Time;durP1;ratioP1;P1;durP2;ratioP2;P2;SDS_P1;SDS_P2;PMS_P1;PMS_P2;Temp;Humidity;BMP_temperature;BMP_pressure;BME280_temperature;BME280_humidity;BME280_pressure;Samples;Min_cycle;Max_cycle;Signal;HPM_P1;HPM_P2
2022/11/11 00:00:59;;;;;;;;;11.33;11.33;;;;;12.93;68.45;102416.13;2104473;28;46474;-62
2022/11/11 00:02:00;;;;;;;;;10.00;10.00;;;;;12.94;68.34;102415.22;2099253;27;46645;-62
2022/11/11 00:03:00;;;;;;;;;11.00;11.00;;;;;12.94;68.38;102417.91;2096181;28;46337;-62
2022/11/11 00:04:00;;;;;;;;;12.33;10.67;;;;;12.93;68.29;102409.00;2090139;28;47676;-63
2022/11/11 00:05:01;;;;;;;;;12.33;11.33;;;;;12.93;68.36;102409.00;2089327;28;46383;-62
2022/11/11 00:06:03;;;;;;;;;9.67;9.67;;;;;12.94;68.45;102408.13;2096379;28;46511;-62
2022/11/11 00:07:04;;;;;;;;;9.75;9.50;;;;;12.93;68.32;102408.13;2095564;28;46197;-62
2022/11/11 00:08:04;;;;;;;;;11.00;11.00;;;;;12.93;68.31;102401.03;2096418;28;46596;-62
2022/11/11 00:09:04;;;;;;;;;12.67;12.67;;;;;12.94;68.41;102416.13;2095889;28;45856;-63
2022/11/11 00:10:05;;;;;;;;;12.33;12.33;;;;;12.94;68.44;102409.91;2099164;28;46605;-63
2022/11/11 00:11:09;;;;;;;;;13.75;11.00;;;;;12.93;68.38;102408.13;2104555;28;45653;-63
2022/11/11 00:12:09;;;;;;;;;12.75;11.75;;;;;12.94;68.39;102409.91;2097288;27;46198;-63
2022/11/11 00:13:09;;;;;;;;;14.00;12.33;;;;;12.93;68.47;102406.34;2094691;28;46561;-64
2022/11/11 00:14:10;;;;;;;;;12.00;10.67;;;;;12.93;68.43;102400.13;2094944;28;46406;-63
2022/11/11 00:15:10;;;;;;;;;13.67;13.33;;;;;12.94;68.41;102401.91;2096006;28;46087;-63
2022/11/11 00:16:14;;;;;;;;;11.67;11.67;;;;;12.94;68.43;102404.56;2096069;28;46238;-64
2022/11/11 00:25:27;;;;;;;;;13.00;12.00;;;;;12.90;68.48;102394.84;2095117;28;46381;-62
2022/11/11 00:26:28;;;;;;;;;12.00;10.50;;;;;12.90;68.44;102400.16;2095231;28;45935;-61
2022/11/11 00:27:28;;;;;;;;;11.25;9.00;;;;;12.87;68.50;102395.72;2094658;28;46779;-62
2022/11/11 00:28:28;;;;;;;;;12.50;11.50;;;;;12.87;68.44;102401.06;2095287;28;45624;-62
2022/11/11 00:29:28;;;;;;;;;11.00;9.33;;;;;12.86;68.49;102403.75;2097985;28;46949;-64
2022/11/11 00:30:29;;;;;;;;;10.25;8.75;;;;;12.86;68.67;102390.41;2103604;28;46563;-64
2022/11/11 00:31:29;;;;;;;;;12.75;12.75;;;;;12.85;68.59;102396.63;2102451;28;45136;-64
2022/11/11 00:32:32;;;;;;;;;14.00;10.00;;;;;12.85;68.70;102393.97;2100836;28;46183;-61
2022/11/11 00:33:33;;;;;;;;;11.50;11.50;;;;;12.83;68.76;102401.06;2094702;28;46570;-61
2022/11/11 00:34:33;;;;;;;;;13.00;11.75;;;;;12.83;68.50;102394.00;2099930;28;46193;-62
2022/11/11 00:35:52;;;;;;;;;12.75;12.25;;;;;12.82;68.64;102397.50;2094959;28;46805;-61
2022/11/11 00:36:52;;;;;;;;;13.60;13.60;;;;;12.84;68.49;102402.88;2103696;28;46444;-62
2022/11/11 00:37:52;;;;;;;;;13.33;12.33;;;;;12.84;68.65;102403.75;2096880;28;46429;-63
2022/11/11 00:38:54;;;;;;;;;11.33;10.67;;;;;12.83;68.67;102401.97;2095941;28;46992;-64
2022/11/11 00:39:55;;;;;;;;;9.80;9.80;;;;;12.84;68.77;102403.75;2103142;28;46547;-62
2022/11/11 00:40:55;;;;;;;;;11.75;11.75;;;;;12.85;68.73;102405.53;2096379;28;46651;-62
2022/11/11 00:41:55;;;;;;;;;9.67;9.67;;;;;12.86;68.70;102409.06;2096240;28;46750;-64
2022/11/11 00:42:55;;;;;;;;;11.75;11.75;;;;;12.87;68.72;102410.84;2094916;28;46830;-63
2022/11/11 00:43:56;;;;;;;;;10.67;10.00;;;;;12.88;68.70;102412.59;2096348;28;46922;-62
2022/11/11 00:44:56;;;;;;;;;13.00;13.00;;;;;12.89;68.71;102425.03;2095994;28;46199;-63
2022/11/11 00:50:57;;;;;;;;;13.75;11.25;;;;;12.88;68.86;102432.16;2094386;28;48377;-63
2022/11/11 00:51:14;;;;;;;;;10.75;10.75;;;;;12.92;68.69;102435.69;2086481;28;46453;-63
2022/11/11 00:52:14;;;;;;;;;13.00;12.00;;;;;12.92;68.72;102435.69;2085942;28;46854;-63
2022/11/11 00:53:23;;;;;;;;;9.67;9.67;;;;;12.92;68.74;102435.69;2086558;28;46518;-62
2022/11/11 00:54:23;;;;;;;;;10.00;10.00;;;;;12.91;68.60;102437.44;2086490;28;46677;-62
2022/11/11 00:55:24;;;;;;;;;11.00;10.00;;;;;12.92;68.60;102436.56;2086534;28;45724;-62
2022/11/11 00:56:24;;;;;;;;;13.67;13.67;;;;;12.93;68.71;102442.78;2078530;28;46157;-64
2022/11/11 00:57:25;;;;;;;;;12.00;12.00;;;;;12.92;68.70;102436.56;2081536;28;45909;-61
2022/11/11 00:58:27;;;;;;;;;10.33;10.33;;;;;12.94;68.63;102441.88;2086679;28;46573;-62
2022/11/11 00:59:27;;;;;;;;;10.50;10.25;;;;;12.93;68.51;102435.66;2086659;28;47286;-62
2022/11/11 01:00:27;;;;;;;;;12.00;12.00;;;;;12.92;68.59;102438.34;2086530;28;46609;-62
2022/11/11 01:01:28;;;;;;;;;10.33;9.33;;;;;12.93;68.27;102426.78;2092607;28;46610;-63
2022/11/11 01:02:28;;;;;;;;;11.00;10.00;;;;;12.93;68.72;102437.44;2094773;28;46240;-63
2022/11/11 01:03:28;;;;;;;;;12.00;10.00;;;;;12.92;68.53;102428.56;2094677;28;47145;-63
2022/11/11 01:04:29;;;;;;;;;12.67;12.67;;;;;12.93;68.52;102422.34;2078531;28;45836;-62
2022/11/11 01:05:29;;;;;;;;;13.33;12.00;;;;;12.94;68.51;102428.56;2089756;28;46825;-64
2022/11/11 01:06:30;;;;;;;;;11.67;11.67;;;;;12.94;68.61;102424.09;2095269;28;45509;-63
2022/11/11 01:07:30;;;;;;;;;15.33;12.67;;;;;12.96;68.55;102424.13;2093815;28;46227;-64
2022/11/11 01:08:31;;;;;;;;;12.67;11.33;;;;;12.96;68.52;102430.34;2097012;28;46665;-61
2022/11/11 01:09:32;;;;;;;;;11.50;11.50;;;;;12.96;68.54;102429.47;2099172;28;46062;-62
2022/11/11 01:10:38;;;;;;;;;13.00;13.00;;;;;12.98;68.54;102432.13;2100784;28;46624;-62
2022/11/11 01:11:38;;;;;;;;;12.00;12.00;;;;;12.96;68.52;102426.78;2094951;28;48038;-62
2022/11/11 01:12:38;;;;;;;;;11.00;11.00;;;;;12.96;68.32;102425.03;2094582;28;46557;-62
2022/11/11 01:13:39;;;;;;;;;13.33;13.33;;;;;12.97;68.46;102425.91;2094514;28;46446;-62
2022/11/11 01:14:40;;;;;;;;;12.75;11.50;;;;;12.95;68.41;102417.88;2094737;28;46080;-63
2022/11/11 01:15:46;;;;;;;;;13.67;12.67;;;;;12.95;68.33;102417.88;2094695;28;46492;-61
2022/11/11 01:16:46;;;;;;;;;12.50;12.50;;;;;12.94;68.15;102421.44;2095036;28;46901;-64
2022/11/11 01:17:46;;;;;;;;;10.67;10.67;;;;;12.94;68.29;102421.44;2094345;28;46669;-62
2022/11/11 01:18:48;;;;;;;;;13.00;11.00;;;;;12.94;68.32;102417.91;2089518;28;46490;-64
2022/11/11 01:19:49;;;;;;;;;13.75;13.75;;;;;12.93;68.48;102421.47;2096150;28;46294;-62
2022/11/11 01:20:57;;;;;;;;;13.00;12.00;;;;;12.92;68.77;102422.34;2102211;28;46536;-63
2022/11/11 01:21:58;;;;;;;;;11.00;10.00;;;;;12.90;68.14;102424.13;2101490;27;46026;-62
2022/11/11 01:22:58;;;;;;;;;11.33;11.33;;;;;12.90;68.42;102421.47;2095134;28;48523;-63
2022/11/11 01:23:58;;;;;;;;;12.00;12.00;;;;;12.91;68.53;102417.91;2095008;28;45730;-64
2022/11/11 01:24:58;;;;;;;;;13.00;11.33;;;;;12.91;68.26;102417.91;2096098;28;46743;-61
2022/11/11 01:26:05;;;;;;;;;6.00;6.00;;;;;12.92;68.27;102420.56;2096874;28;46833;-63
2022/11/11 01:27:05;;;;;;;;;11.00;11.00;;;;;12.93;68.48;102419.69;2096998;28;46653;-61
2022/11/11 01:28:07;;;;;;;;;12.33;11.33;;;;;12.94;68.59;102418.78;2096636;28;46600;-62
2022/11/11 01:29:07;;;;;;;;;12.75;11.25;;;;;12.94;68.58;102418.78;2088875;28;47234;-62
2022/11/11 01:30:08;;;;;;;;;13.00;13.00;;;;;12.95;68.45;102409.88;2088250;28;46269;-61
2022/11/11 01:31:11;;;;;;;;;11.67;11.67;;;;;12.96;68.13;102424.13;2095782;28;46636;-63
2022/11/11 01:32:11;;;;;;;;;12.00;12.00;;;;;12.96;68.45;102418.81;2089567;28;45664;-63
2022/11/11 01:33:12;;;;;;;;;12.33;12.33;;;;;12.97;68.57;102420.56;2089536;28;46311;-62
2022/11/11 01:34:12;;;;;;;;;11.75;11.75;;;;;13.00;68.37;102417.00;2097158;28;46196;-62
2022/11/11 01:35:12;;;;;;;;;12.67;12.67;;;;;13.01;68.43;102419.66;2095714;28;46631;-64
2022/11/11 01:36:16;;;;;;;;;12.50;12.50;;;;;13.01;68.52;102422.31;2096881;28;46385;-63
2022/11/11 01:37:17;;;;;;;;;15.25;14.50;;;;;13.00;68.26;102422.34;2096984;28;46225;-64
2022/11/11 01:38:17;;;;;;;;;14.00;11.00;;;;;12.98;68.24;102425.00;2097000;28;46988;-62
2022/11/11 01:39:17;;;;;;;;;14.00;12.00;;;;;12.99;68.37;102428.56;2097222;28;45572;-62
2022/11/11 01:40:18;;;;;;;;;13.33;12.00;;;;;13.00;68.35;102423.22;2096995;28;46467;-63
2022/11/11 01:41:36;;;;;;;;;11.67;11.00;;;;;13.01;68.08;102432.09;2096649;28;46086;-63
2022/11/11 01:42:51;;;;;;;;;12.50;12.50;;;;;13.02;68.08;102425.88;2096736;28;46330;-63
2022/11/11 01:43:53;;;;;;;;;14.60;12.00;;;;;13.01;68.08;102432.97;2096715;28;46749;-62
2022/11/11 01:44:53;;;;;;;;;15.00;14.25;;;;;13.01;68.22;102426.75;2094090;28;47038;-62
2022/11/11 01:46:02;;;;;;;;;18.67;15.67;;;;;13.00;67.89;102427.66;2097099;28;46342;-61
2022/11/11 01:47:05;;;;;;;;;13.00;13.00;;;;;12.99;67.92;102433.88;2096589;28;46808;-62
2022/11/11 01:49:51;;;;;;;;;15.75;13.25;;;;;12.98;67.83;102434.78;2090745;28;46323;-62
2022/11/11 01:50:53;;;;;;;;;15.50;15.25;;;;;12.96;67.90;102433.00;2097114;28;45697;-61
2022/11/11 01:52:11;;;;;;;;;16.80;14.00;;;;;12.96;68.08;102429.47;2088544;28;46915;-64
2022/11/11 01:53:12;;;;;;;;;15.60;15.20;;;;;12.96;67.99;102440.13;2096119;28;45865;-61
2022/11/11 01:54:50;;;;;;;;;13.00;11.00;;;;;12.93;68.00;102445.44;2092832;28;46019;-63
2022/11/11 01:55:51;;;;;;;;;14.00;13.50;;;;;12.92;68.04;102451.66;2081540;28;46326;-63
2022/11/11 01:57:00;;;;;;;;;17.25;17.25;;;;;12.91;67.90;102444.56;2086530;28;47127;-62
2022/11/11 01:58:05;;;;;;;;;10.75;10.75;;;;;12.91;68.05;102445.44;2079087;28;46387;-63
2022/11/11 01:59:10;;;;;;;;;19.25;15.75;;;;;12.89;67.92;102444.56;2079270;28;46972;-62
2022/11/11 02:00:14;;;;;;;;;12.75;12.75;;;;;12.88;68.12;102445.47;2071186;28;46697;-62
2022/11/11 02:01:16;;;;;;;;;11.00;11.00;;;;;12.88;68.13;102444.59;2071357;28;46972;-61
2022/11/11 02:02:21;;;;;;;;;13.50;11.75;;;;;12.87;67.95;102449.03;2078860;28;46661;-63
2022/11/11 02:03:24;;;;;;;;;12.25;12.25;;;;;12.88;68.22;102441.91;2079044;28;46583;-61
2022/11/11 02:05:45;;;;;;;;;12.00;10.75;;;;;12.88;67.92;102445.47;2079109;28;46762;-61
2022/11/11 02:06:52;;;;;;;;;15.20;12.20;;;;;12.88;67.87;102441.91;2079333;28;46574;-62
2022/11/11 02:07:55;;;;;;;;;12.75;12.25;;;;;12.88;67.96;102450.78;2078884;28;46467;-62
2022/11/11 02:08:55;;;;;;;;;12.50;11.50;;;;;12.88;68.03;102440.13;2079306;28;46179;-63
2022/11/11 02:09:56;;;;;;;;;13.00;11.00;;;;;12.89;67.92;102441.03;2079301;28;46468;-61
2022/11/11 02:11:09;;;;;;;;;16.00;14.67;;;;;12.90;67.98;102448.13;2079234;28;46126;-62
2022/11/11 02:14:53;;;;;;;;;11.60;11.60;;;;;12.88;68.07;102442.81;2079007;28;46938;-62
2022/11/11 02:15:53;;;;;;;;;13.75;13.00;;;;;12.90;68.04;102432.13;2079288;28;47000;-62
2022/11/11 02:16:54;;;;;;;;;13.67;13.67;;;;;12.91;68.00;102431.25;2079111;28;46599;-62
2022/11/11 02:17:54;;;;;;;;;15.67;15.67;;;;;12.90;68.00;102427.69;2078739;28;46167;-62
2022/11/11 02:18:55;;;;;;;;;15.00;15.00;;;;;12.90;68.13;102416.16;2079485;28;46109;-62
2022/11/11 02:20:01;;;;;;;;;13.33;12.00;;;;;12.91;67.89;102423.25;2078760;28;46860;-62
2022/11/11 02:21:01;;;;;;;;;12.50;12.25;;;;;12.92;68.15;102425.91;2078840;28;45754;-63
2022/11/11 02:22:03;;;;;;;;;13.33;13.33;;;;;12.92;67.81;102428.56;2079371;28;46714;-62
2022/11/11 02:23:15;;;;;;;;;13.00;13.00;;;;;12.92;67.76;102427.69;2079159;28;46800;-62
2022/11/11 02:24:18;;;;;;;;;17.00;16.60;;;;;12.91;68.00;102434.78;2079678;28;46438;-61
2022/11/11 02:25:23;;;;;;;;;15.80;15.60;;;;;12.90;67.90;102425.03;2087288;28;46373;-63
2022/11/11 02:26:24;;;;;;;;;15.25;14.50;;;;;12.90;67.78;102427.69;2079651;28;45528;-63
2022/11/11 02:27:28;;;;;;;;;15.25;13.00;;;;;12.89;67.66;102422.38;2079237;28;46098;-62
2022/11/11 02:28:31;;;;;;;;;15.00;13.50;;;;;12.89;67.86;102427.69;2077049;28;46478;-61
2022/11/11 02:29:33;;;;;;;;;16.50;13.50;;;;;12.87;67.81;102427.72;2079490;28;46446;-63
2022/11/11 02:30:33;;;;;;;;;12.00;12.00;;;;;12.86;67.87;102423.28;2087033;28;46329;-64
2022/11/11 02:31:34;;;;;;;;;13.75;13.75;;;;;12.86;67.74;102427.72;2079807;28;46280;-62
2022/11/11 02:32:34;;;;;;;;;14.67;14.67;;;;;12.84;67.85;102425.06;2079175;28;46891;-62
2022/11/11 02:33:35;;;;;;;;;15.33;14.00;;;;;12.85;67.73;102440.16;2085491;28;46371;-63
2022/11/11 02:34:35;;;;;;;;;14.67;14.00;;;;;12.86;67.82;102430.38;2093890;28;46669;-62
2022/11/11 02:35:40;;;;;;;;;14.33;14.33;;;;;12.87;67.95;102426.81;2096461;28;46637;-62
2022/11/11 02:36:43;;;;;;;;;19.40;16.60;;;;;12.88;67.78;102420.59;2095892;28;46740;-62
2022/11/11 02:37:50;;;;;;;;;14.80;14.00;;;;;12.87;67.69;102419.72;2096535;28;48146;-62
2022/11/11 02:38:51;;;;;;;;;12.00;12.00;;;;;12.88;67.96;102416.16;2096276;28;46511;-63
2022/11/11 02:39:59;;;;;;;;;13.00;12.33;;;;;12.89;67.79;102411.72;2096332;28;46828;-63
2022/11/11 02:42:20;;;;;;;;;15.25;15.25;;;;;12.88;67.81;102416.16;2098218;28;46167;-64
2022/11/11 02:43:20;;;;;;;;;13.25;13.25;;;;;12.88;67.82;102423.25;2096211;28;46675;-63
2022/11/11 02:44:20;;;;;;;;;13.00;13.00;;;;;12.87;67.82;102418.84;2096458;27;46380;-63
2022/11/11 02:45:21;;;;;;;;;15.00;14.00;;;;;12.88;67.95;102420.59;2092533;28;46839;-60
2022/11/11 02:46:21;;;;;;;;;12.33;12.33;;;;;12.87;67.82;102417.06;2100131;27;46681;-62
2022/11/11 02:47:21;;;;;;;;;16.00;14.25;;;;;12.88;67.83;102421.50;2102223;28;46486;-62
2022/11/11 02:48:23;;;;;;;;;15.50;15.50;;;;;12.87;67.84;102422.38;2097165;27;46715;-61
2022/11/11 02:49:23;;;;;;;;;15.00;13.25;;;;;12.86;67.73;102420.63;2101370;27;46491;-61
2022/11/11 02:50:23;;;;;;;;;13.33;13.33;;;;;12.87;67.82;102418.84;2100591;28;46465;-62
2022/11/11 02:51:23;;;;;;;;;15.00;13.00;;;;;12.88;67.90;102418.81;2098257;27;46162;-62
2022/11/11 02:52:24;;;;;;;;;14.00;13.67;;;;;12.89;67.75;102423.25;2100036;28;46779;-62
2022/11/11 02:53:25;;;;;;;;;16.33;13.67;;;;;12.88;67.88;102432.16;2097622;28;46906;-62
2022/11/11 02:54:25;;;;;;;;;13.00;13.00;;;;;12.90;67.74;102432.13;2103893;28;46946;-63
2022/11/11 02:55:25;;;;;;;;;12.25;12.25;;;;;12.91;67.64;102425.91;2106230;27;46668;-63
2022/11/11 02:57:44;;;;;;;;;15.75;14.75;;;;;12.92;67.68;102430.34;2098769;28;45961;-62
2022/11/11 02:58:45;;;;;;;;;17.67;16.00;;;;;12.92;67.70;102436.56;2102323;28;46210;-63
2022/11/11 02:59:45;;;;;;;;;15.33;14.67;;;;;12.90;67.54;102426.81;2098345;28;46282;-61
2022/11/11 03:00:45;;;;;;;;;14.67;14.67;;;;;12.89;67.58;102427.69;2100427;27;46383;-62
2022/11/11 03:01:46;;;;;;;;;17.33;15.67;;;;;12.88;67.74;102429.47;2101284;28;47014;-61
2022/11/11 03:02:46;;;;;;;;;10.50;10.00;;;;;12.86;67.50;102423.28;2097441;27;46515;-63
2022/11/11 03:03:47;;;;;;;;;16.33;15.00;;;;;12.84;67.36;102425.06;2102393;27;47361;-62
2022/11/11 03:04:47;;;;;;;;;16.67;12.33;;;;;12.84;67.68;102425.06;2100010;28;46570;-63
2022/11/11 03:05:47;;;;;;;;;14.33;14.33;;;;;12.84;67.76;102419.75;2098992;27;46133;-62
2022/11/11 03:06:48;;;;;;;;;15.67;13.67;;;;;12.84;67.57;102422.41;2102950;28;46408;-62
2022/11/11 03:07:48;;;;;;;;;12.75;12.25;;;;;12.85;67.77;102418.84;2097788;27;47199;-62
2022/11/11 03:08:48;;;;;;;;;14.75;13.00;;;;;12.85;67.49;102420.63;2099855;27;46596;-63
2022/11/11 03:09:49;;;;;;;;;8.67;8.67;;;;;12.84;67.72;102422.41;2089369;28;46921;-61
2022/11/11 03:10:49;;;;;;;;;13.50;12.75;;;;;12.84;67.69;102422.41;2104820;27;46605;-63
2022/11/11 03:11:49;;;;;;;;;14.00;13.33;;;;;12.83;67.29;102428.63;2096803;27;46449;-62
2022/11/11 03:12:50;;;;;;;;;13.00;10.33;;;;;12.81;67.44;102416.19;2096190;28;46792;-61
2022/11/11 03:13:50;;;;;;;;;11.75;10.75;;;;;12.81;67.45;102419.72;2104543;28;46115;-62
2022/11/11 03:14:50;;;;;;;;;13.75;13.75;;;;;12.78;67.54;102411.75;2092886;27;46268;-62
2022/11/11 03:15:50;;;;;;;;;17.00;13.00;;;;;12.77;67.74;102409.97;2089042;28;45868;-61
2022/11/11 03:18:10;;;;;;;;;15.00;13.00;;;;;12.78;67.82;102417.06;2088923;28;45909;-62
2022/11/11 03:19:10;;;;;;;;;12.00;11.00;;;;;12.79;67.76;102412.63;2088088;28;45962;-63
2022/11/11 03:21:33;;;;;;;;;11.80;11.20;;;;;12.81;67.68;102410.84;2088014;28;46619;-62
2022/11/11 03:22:33;;;;;;;;;12.00;10.00;;;;;12.79;67.43;102412.63;2087993;28;46702;-61
2022/11/11 03:23:33;;;;;;;;;13.67;13.67;;;;;12.80;67.73;102411.75;2088016;28;46813;-61
2022/11/11 03:25:52;;;;;;;;;14.25;12.75;;;;;12.81;67.69;102411.72;2104574;27;46501;-62
2022/11/11 03:26:53;;;;;;;;;13.00;13.00;;;;;12.81;67.44;102409.06;2096311;28;46641;-62
2022/11/11 03:27:53;;;;;;;;;17.50;16.25;;;;;12.82;67.27;102413.50;2094676;28;46284;-62
2022/11/11 03:28:54;;;;;;;;;15.33;12.67;;;;;12.82;67.78;102409.94;2092758;28;46509;-62
2022/11/11 03:29:54;;;;;;;;;12.67;11.33;;;;;12.81;67.87;102408.19;2087782;28;46987;-63
2022/11/11 03:30:54;;;;;;;;;12.33;11.67;;;;;12.82;67.62;102407.28;2089420;28;46526;-62
2022/11/11 03:31:54;;;;;;;;;16.00;13.00;;;;;12.81;67.51;102406.41;2096094;28;46508;-63
2022/11/11 03:32:55;;;;;;;;;10.33;10.33;;;;;12.81;67.69;102409.06;2096168;28;46843;-63
2022/11/11 03:33:55;;;;;;;;;14.00;13.33;;;;;12.82;67.75;102410.84;2096142;28;46510;-62
2022/11/11 03:34:55;;;;;;;;;15.33;13.33;;;;;12.83;67.52;102404.66;2092076;28;46228;-61
2022/11/11 03:35:56;;;;;;;;;13.00;13.00;;;;;12.83;67.69;102409.06;2094674;28;46161;-62
2022/11/11 03:38:15;;;;;;;;;15.00;13.00;;;;;12.82;67.49;102416.16;2095747;28;47274;-62
2022/11/11 03:39:15;;;;;;;;;19.00;17.67;;;;;12.84;67.43;102418.84;2087608;28;46974;-62
2022/11/11 03:40:16;;;;;;;;;13.00;12.00;;;;;12.84;67.42;102411.75;2090544;28;46428;-63
2022/11/11 03:41:16;;;;;;;;;16.00;15.67;;;;;12.85;67.57;102415.28;2095699;28;46201;-63
2022/11/11 03:42:16;;;;;;;;;12.33;12.33;;;;;12.84;67.62;102411.75;2089435;28;46485;-62
2022/11/11 03:43:19;;;;;;;;;13.33;13.33;;;;;12.86;67.54;102414.41;2087815;28;46497;-62
2022/11/11 03:44:19;;;;;;;;;12.50;11.50;;;;;12.87;67.52;102417.06;2095946;28;46700;-62
2022/11/11 03:45:20;;;;;;;;;15.00;15.00;;;;;12.86;67.36;102420.63;2096013;28;46298;-64
2022/11/11 03:46:20;;;;;;;;;11.67;11.67;;;;;12.85;67.51;102413.50;2096141;28;46466;-63
2022/11/11 03:47:20;;;;;;;;;11.67;11.67;;;;;12.85;67.41;102420.63;2095907;28;46787;-63
2022/11/11 03:48:22;;;;;;;;;11.00;11.00;;;;;12.86;67.49;102417.94;2095848;28;46710;-63
2022/11/11 03:49:22;;;;;;;;;12.75;12.50;;;;;12.88;67.44;102423.25;2096204;28;46621;-63
2022/11/11 03:50:22;;;;;;;;;15.33;14.00;;;;;12.89;67.22;102430.38;2090092;28;46519;-61
2022/11/11 03:51:23;;;;;;;;;12.33;11.33;;;;;12.88;67.34;102420.59;2088224;28;45045;-62
2022/11/11 03:52:23;;;;;;;;;15.00;14.33;;;;;12.88;67.33;102425.94;2095869;28;47077;-63
2022/11/11 03:53:23;;;;;;;;;13.00;13.00;;;;;12.88;67.16;102424.16;2096170;28;48045;-64
2022/11/11 03:54:23;;;;;;;;;13.33;12.00;;;;;12.88;67.12;102425.94;2095886;28;46333;-64
2022/11/11 03:55:24;;;;;;;;;16.00;15.67;;;;;12.88;67.24;102418.81;2095809;28;46348;-62
2022/11/11 03:56:24;;;;;;;;;11.00;9.67;;;;;12.89;67.38;102422.38;2095776;28;46524;-63
2022/11/11 03:57:31;;;;;;;;;14.33;13.67;;;;;12.90;67.44;102425.03;2089556;28;46163;-63
2022/11/11 03:58:31;;;;;;;;;14.75;13.75;;;;;12.90;67.38;102419.69;2086794;28;46993;-64
2022/11/11 03:59:31;;;;;;;;;11.33;10.33;;;;;12.89;67.31;102425.91;2088005;28;46303;-63
2022/11/11 04:00:32;;;;;;;;;13.67;11.33;;;;;12.89;67.27;102425.03;2091670;28;46762;-63
2022/11/11 04:11:26;;;;;;;;;11.00;9.50;;;;;12.89;67.13;102449.91;2078985;28;46608;-63
2022/11/11 04:12:28;;;;;;;;;12.00;12.00;;;;;12.89;67.24;102451.69;2070001;28;46625;-62
2022/11/11 04:16:09;;;;;;;;;12.75;12.25;;;;;12.84;67.09;102448.16;2078674;28;46348;-62
2022/11/11 04:17:09;;;;;;;;;10.25;10.25;;;;;12.83;66.98;102451.69;2078197;28;46312;-64
2022/11/11 04:18:09;;;;;;;;;13.00;11.00;;;;;12.82;67.06;102444.59;2078545;28;46478;-62
2022/11/11 04:21:48;;;;;;;;;10.50;9.75;;;;;12.81;67.07;102443.69;2076760;28;46940;-62
2022/11/11 04:22:52;;;;;;;;;10.50;10.50;;;;;12.82;66.81;102450.81;2079916;28;46048;-63
2022/11/11 04:23:53;;;;;;;;;13.20;11.40;;;;;12.81;66.84;102453.47;2086599;28;47019;-62
2022/11/11 04:26:12;;;;;;;;;12.25;11.25;;;;;12.77;67.09;102446.41;2078438;28;46092;-62
2022/11/11 04:27:15;;;;;;;;;10.33;10.33;;;;;12.76;67.12;102445.50;2077944;28;46523;-64
2022/11/11 04:29:35;;;;;;;;;11.50;9.00;;;;;12.76;67.07;102442.84;2082845;28;45581;-63
2022/11/11 04:30:35;;;;;;;;;10.67;10.67;;;;;12.77;67.04;102447.28;2078521;28;47220;-62
2022/11/11 04:31:35;;;;;;;;;8.00;8.00;;;;;12.77;67.20;102433.06;2070224;28;46581;-61
2022/11/11 04:32:39;;;;;;;;;11.00;10.00;;;;;12.77;67.13;102435.72;2070361;28;46645;-62
2022/11/11 04:33:39;;;;;;;;;9.25;9.00;;;;;12.76;67.04;102440.19;2069968;28;46140;-61
2022/11/11 04:34:41;;;;;;;;;10.67;9.67;;;;;12.75;66.97;102441.06;2069026;28;46864;-61
2022/11/11 04:35:41;;;;;;;;;10.00;9.75;;;;;12.74;67.13;102441.97;2078331;28;46144;-63
2022/11/11 04:36:41;;;;;;;;;8.67;8.67;;;;;12.73;67.18;102439.31;2078530;28;46627;-62
2022/11/11 04:37:50;;;;;;;;;13.00;12.00;;;;;12.74;67.26;102438.41;2078007;28;46521;-62
2022/11/11 04:41:29;;;;;;;;;12.00;11.00;;;;;12.74;67.28;102443.75;2061683;28;46965;-63
2022/11/11 04:42:31;;;;;;;;;11.33;11.33;;;;;12.75;67.15;102448.19;2066229;28;46527;-62
2022/11/11 04:45:26;;;;;;;;;9.00;8.25;;;;;12.75;67.43;102443.75;2078344;28;46808;-62
2022/11/11 04:46:11;;;;;;;;;10.25;10.25;;;;;12.75;67.53;102440.19;2087827;28;46602;-63
2022/11/11 04:47:11;;;;;;;;;13.00;13.00;;;;;12.73;67.60;102442.88;2101445;28;46535;-63
2022/11/11 04:48:12;;;;;;;;;11.33;11.33;;;;;12.73;67.50;102436.66;2104463;27;46549;-61
2022/11/11 04:49:12;;;;;;;;;12.33;12.33;;;;;12.72;67.60;102443.75;2102949;27;46071;-61
2022/11/11 04:50:13;;;;;;;;;11.00;11.00;;;;;12.71;67.54;102433.09;2099366;28;46030;-63
2022/11/11 04:51:13;;;;;;;;;11.67;10.33;;;;;12.71;67.57;102435.78;2104571;28;46443;-63
2022/11/11 04:52:25;;;;;;;;;11.67;10.00;;;;;12.73;67.50;102439.31;2096887;27;46898;-64
2022/11/11 04:53:25;;;;;;;;;9.25;9.25;;;;;12.74;67.52;102438.41;2095891;28;46955;-62
2022/11/11 04:54:26;;;;;;;;;11.67;11.67;;;;;12.74;67.73;102446.41;2095769;28;46846;-61
2022/11/11 04:56:49;;;;;;;;;11.25;10.25;;;;;12.71;67.54;102438.44;2100226;28;46473;-61
2022/11/11 04:57:49;;;;;;;;;10.50;10.25;;;;;12.72;67.67;102437.53;2096835;28;46465;-63
2022/11/11 04:59:14;;;;;;;;;11.67;11.33;;;;;12.71;67.74;102441.97;2088374;28;46284;-63
2022/11/11 05:00:16;;;;;;;;;10.00;9.25;;;;;12.73;67.80;102442.88;2102767;28;46735;-62
2022/11/11 05:03:14;;;;;;;;;10.75;10.00;;;;;12.75;67.79;102440.19;2099190;28;46635;-62
2022/11/11 05:03:56;;;;;;;;;12.25;12.25;;;;;12.76;67.72;102436.63;2101571;28;46322;-61
2022/11/11 05:04:56;;;;;;;;;13.00;11.67;;;;;12.76;67.69;102441.97;2103256;28;46095;-62
2022/11/11 05:09:58;;;;;;;;;13.00;13.00;;;;;12.78;67.76;102437.50;2101196;28;46842;-62
2022/11/11 05:10:58;;;;;;;;;13.33;11.67;;;;;12.79;68.01;102439.28;2096626;28;47054;-62
2022/11/11 05:11:59;;;;;;;;;13.00;12.00;;;;;12.80;67.91;102441.94;2097192;28;46694;-61
2022/11/11 05:22:29;;;;;;;;;10.00;9.75;;;;;12.86;67.63;102423.28;2097081;28;46673;-63
2022/11/11 05:25:24;;;;;;;;;12.50;10.75;;;;;12.88;67.56;102423.25;2089700;28;46774;-61
2022/11/11 05:26:09;;;;;;;;;10.25;9.50;;;;;12.87;67.81;102418.84;2096936;28;46406;-62
2022/11/11 05:27:09;;;;;;;;;11.00;9.67;;;;;12.88;67.50;102428.59;2097025;28;46092;-62
2022/11/11 05:28:09;;;;;;;;;13.00;11.67;;;;;12.89;67.46;102433.03;2097227;28;46215;-62
2022/11/11 05:29:10;;;;;;;;;13.33;11.67;;;;;12.89;67.63;102428.59;2093311;28;46578;-62
2022/11/11 05:30:12;;;;;;;;;13.00;13.00;;;;;12.90;67.77;102427.69;2097150;28;45305;-62
2022/11/11 05:31:13;;;;;;;;;13.00;11.25;;;;;12.91;67.54;102433.91;2097075;28;46667;-62
2022/11/11 05:32:18;;;;;;;;;9.00;9.00;;;;;12.90;67.55;102433.03;2097156;28;46686;-62
2022/11/11 05:33:19;;;;;;;;;11.25;11.25;;;;;12.91;67.39;102433.91;2097260;28;45700;-64
2022/11/11 05:34:19;;;;;;;;;14.33;12.00;;;;;12.92;67.56;102446.34;2096776;28;46653;-62
2022/11/11 05:35:19;;;;;;;;;12.33;11.67;;;;;12.91;67.37;102434.78;2090536;28;45640;-61
2022/11/11 05:36:20;;;;;;;;;13.00;11.67;;;;;12.91;67.29;102437.44;2094795;28;46418;-62
2022/11/11 05:37:20;;;;;;;;;18.67;15.67;;;;;12.90;67.19;102432.13;2096277;28;46234;-62
2022/11/11 05:38:21;;;;;;;;;12.00;11.00;;;;;12.89;67.08;102435.69;2096428;28;46213;-63
2022/11/11 05:39:21;;;;;;;;;12.67;11.00;;;;;12.90;67.23;102441.00;2096913;28;46773;-64
2022/11/11 05:40:21;;;;;;;;;11.33;10.00;;;;;12.89;67.18;102441.91;2096859;28;46314;-65
2022/11/11 05:41:22;;;;;;;;;11.00;11.00;;;;;12.89;67.24;102444.56;2097037;28;45855;-62
2022/11/11 05:42:22;;;;;;;;;8.67;6.33;;;;;12.90;67.24;102446.34;2096590;28;46259;-62
2022/11/11 05:43:23;;;;;;;;;8.67;8.33;;;;;12.89;67.14;102435.69;2097028;28;45645;-62
2022/11/11 05:44:23;;;;;;;;;13.67;10.00;;;;;12.88;66.98;102445.47;2098077;28;46245;-65
2022/11/11 05:45:23;;;;;;;;;9.33;9.33;;;;;12.86;66.97;102438.38;2103169;28;45549;-62
2022/11/11 05:46:24;;;;;;;;;9.00;9.00;;;;;12.84;67.00;102437.50;2097085;28;45841;-63
2022/11/11 05:47:24;;;;;;;;;9.00;9.00;;;;;12.84;67.09;102437.50;2096897;28;46597;-62
2022/11/11 05:48:24;;;;;;;;;8.00;8.00;;;;;12.84;67.17;102440.16;2097060;28;46681;-63